sensor_id;sensor_type;location;lat;lon;timestamp;P1;durP1;ratioP1;P2;durP2;ratioP2
74177;SDS011;62540;48.456;-4.456;2023-05-07T00:02:13;10.00;;;8.00;;
74177;SDS011;62540;48.456;-4.456;2023-05-07T00:04:39;10.50;;;9.25;;
74177;SDS011;62540;48.456;-4.456;2023-05-07T00:07:04;10.75;;;8.25;;
74177;SDS011;62540;48.456;-4.456;2023-05-07T00:09:30;10.00;;;8.25;;
74177;SDS011;62540;48.456;-4.456;2023-05-07T00:11:55;7.25;;;6.25;;
74177;SDS011;62540;48.456;-4.456;2023-05-07T00:14:21;10.50;;;7.25;;
74177;SDS011;62540;48.456;-4.456;2023-05-07T00:16:46;10.00;;;7.50;;
74177;SDS011;62540;48.456;-4.456;2023-05-07T00:19:12;10.75;;;7.50;;
74177;SDS011;62540;48.456;-4.456;2023-05-07T00:21:37;9.25;;;7.00;;
74177;SDS011;62540;48.456;-4.456;2023-05-07T00:24:03;8.50;;;7.00;;
74177;SDS011;62540;48.456;-4.456;2023-05-07T00:26:28;6.50;;;6.50;;
74177;SDS011;62540;48.456;-4.456;2023-05-07T00:28:54;8.00;;;7.00;;
74177;SDS011;62540;48.456;-4.456;2023-05-07T00:31:19;7.50;;;6.00;;
74177;SDS011;62540;48.456;-4.456;2023-05-07T00:33:45;7.50;;;6.75;;
74177;SDS011;62540;48.456;-4.456;2023-05-07T00:36:10;7.75;;;7.00;;
74177;SDS011;62540;48.456;-4.456;2023-05-07T00:38:35;7.50;;;5.75;;
74177;SDS011;62540;48.456;-4.456;2023-05-07T00:41:01;9.75;;;7.75;;
74177;SDS011;62540;48.456;-4.456;2023-05-07T00:43:27;9.00;;;7.25;;
74177;SDS011;62540;48.456;-4.456;2023-05-07T00:45:52;8.00;;;5.50;;
74177;SDS011;62540;48.456;-4.456;2023-05-07T00:48:18;5.50;;;5.00;;
74177;SDS011;62540;48.456;-4.456;2023-05-07T00:50:44;8.25;;;8.25;;
74177;SDS011;62540;48.456;-4.456;2023-05-07T00:53:10;9.00;;;8.00;;
74177;SDS011;62540;48.456;-4.456;2023-05-07T00:55:38;10.75;;;8.25;;
74177;SDS011;62540;48.456;-4.456;2023-05-07T00:58:04;5.75;;;3.25;;
74177;SDS011;62540;48.456;-4.456;2023-05-07T01:00:29;7.75;;;7.25;;
74177;SDS011;62540;48.456;-4.456;2023-05-07T01:02:54;7.00;;;6.50;;
74177;SDS011;62540;48.456;-4.456;2023-05-07T01:05:20;6.50;;;3.25;;
74177;SDS011;62540;48.456;-4.456;2023-05-07T01:07:48;8.50;;;6.25;;
74177;SDS011;62540;48.456;-4.456;2023-05-07T01:10:14;6.00;;;6.00;;
74177;SDS011;62540;48.456;-4.456;2023-05-07T01:12:41;9.75;;;6.25;;
74177;SDS011;62540;48.456;-4.456;2023-05-07T01:15:08;5.25;;;5.25;;
74177;SDS011;62540;48.456;-4.456;2023-05-07T01:17:41;6.00;;;4.50;;
74177;SDS011;62540;48.456;-4.456;2023-05-07T01:20:07;3.75;;;3.25;;
74177;SDS011;62540;48.456;-4.456;2023-05-07T01:22:35;5.25;;;4.00;;
74177;SDS011;62540;48.456;-4.456;2023-05-07T01:25:02;5.25;;;4.75;;
74177;SDS011;62540;48.456;-4.456;2023-05-07T01:27:29;4.75;;;4.75;;
74177;SDS011;62540;48.456;-4.456;2023-05-07T01:29:54;4.75;;;4.00;;
74177;SDS011;62540;48.456;-4.456;2023-05-07T01:32:21;5.25;;;5.00;;
74177;SDS011;62540;48.456;-4.456;2023-05-07T01:34:54;5.00;;;3.00;;
74177;SDS011;62540;48.456;-4.456;2023-05-07T01:37:22;5.25;;;3.50;;
74177;SDS011;62540;48.456;-4.456;2023-05-07T01:39:49;5.75;;;5.50;;
74177;SDS011;62540;48.456;-4.456;2023-05-07T01:42:15;6.75;;;6.75;;
74177;SDS011;62540;48.456;-4.456;2023-05-07T01:44:40;5.50;;;3.25;;
74177;SDS011;62540;48.456;-4.456;2023-05-07T01:47:06;6.50;;;5.75;;
74177;SDS011;62540;48.456;-4.456;2023-05-07T01:49:32;7.50;;;4.25;;
74177;SDS011;62540;48.456;-4.456;2023-05-07T01:51:57;7.75;;;7.00;;
74177;SDS011;62540;48.456;-4.456;2023-05-07T01:54:26;9.75;;;9.25;;
74177;SDS011;62540;48.456;-4.456;2023-05-07T01:56:53;9.25;;;7.50;;
74177;SDS011;62540;48.456;-4.456;2023-05-07T01:59:18;6.75;;;6.00;;
74177;SDS011;62540;48.456;-4.456;2023-05-07T02:01:44;6.50;;;5.25;;
74177;SDS011;62540;48.456;-4.456;2023-05-07T02:04:09;10.00;;;8.50;;
74177;SDS011;62540;48.456;-4.456;2023-05-07T02:06:34;6.50;;;6.00;;
74177;SDS011;62540;48.456;-4.456;2023-05-07T02:09:00;8.50;;;7.25;;
74177;SDS011;62540;48.456;-4.456;2023-05-07T02:11:26;7.00;;;5.75;;
74177;SDS011;62540;48.456;-4.456;2023-05-07T02:13:52;5.50;;;3.75;;
74177;SDS011;62540;48.456;-4.456;2023-05-07T02:16:18;5.50;;;4.00;;
74177;SDS011;62540;48.456;-4.456;2023-05-07T02:18:44;7.00;;;5.25;;
74177;SDS011;62540;48.456;-4.456;2023-05-07T02:21:09;7.50;;;6.50;;
74177;SDS011;62540;48.456;-4.456;2023-05-07T02:23:35;4.25;;;3.00;;
74177;SDS011;62540;48.456;-4.456;2023-05-07T02:26:00;6.75;;;3.00;;
74177;SDS011;62540;48.456;-4.456;2023-05-07T02:28:25;4.25;;;3.50;;
74177;SDS011;62540;48.456;-4.456;2023-05-07T02:30:51;3.75;;;3.75;;
74177;SDS011;62540;48.456;-4.456;2023-05-07T02:33:17;5.75;;;4.75;;
74177;SDS011;62540;48.456;-4.456;2023-05-07T02:35:43;7.00;;;6.25;;
74177;SDS011;62540;48.456;-4.456;2023-05-07T02:38:08;5.50;;;5.50;;
74177;SDS011;62540;48.456;-4.456;2023-05-07T02:40:35;4.00;;;3.75;;
74177;SDS011;62540;48.456;-4.456;2023-05-07T02:43:04;4.00;;;4.00;;
74177;SDS011;62540;48.456;-4.456;2023-05-07T02:45:30;2.25;;;2.00;;
74177;SDS011;62540;48.456;-4.456;2023-05-07T02:47:56;6.50;;;4.00;;
74177;SDS011;62540;48.456;-4.456;2023-05-07T02:50:22;4.00;;;4.00;;
74177;SDS011;62540;48.456;-4.456;2023-05-07T02:52:47;7.00;;;4.50;;
74177;SDS011;62540;48.456;-4.456;2023-05-07T02:55:13;4.75;;;4.25;;
74177;SDS011;62540;48.456;-4.456;2023-05-07T02:57:39;4.00;;;4.00;;
74177;SDS011;62540;48.456;-4.456;2023-05-07T03:00:11;3.25;;;3.00;;
74177;SDS011;62540;48.456;-4.456;2023-05-07T03:02:38;4.75;;;4.25;;
74177;SDS011;62540;48.456;-4.456;2023-05-07T03:05:03;4.25;;;3.75;;
74177;SDS011;62540;48.456;-4.456;2023-05-07T03:07:29;4.00;;;3.00;;
74177;SDS011;62540;48.456;-4.456;2023-05-07T03:09:55;7.50;;;7.00;;
74177;SDS011;62540;48.456;-4.456;2023-05-07T03:12:20;5.00;;;4.00;;
74177;SDS011;62540;48.456;-4.456;2023-05-07T03:14:45;4.25;;;3.00;;
74177;SDS011;62540;48.456;-4.456;2023-05-07T03:17:11;4.75;;;4.00;;
74177;SDS011;62540;48.456;-4.456;2023-05-07T03:19:36;7.00;;;7.00;;
74177;SDS011;62540;48.456;-4.456;2023-05-07T03:22:02;4.75;;;3.00;;
74177;SDS011;62540;48.456;-4.456;2023-05-07T03:24:27;4.50;;;4.00;;
74177;SDS011;62540;48.456;-4.456;2023-05-07T03:26:52;6.50;;;5.00;;
74177;SDS011;62540;48.456;-4.456;2023-05-07T03:29:18;5.50;;;4.50;;
74177;SDS011;62540;48.456;-4.456;2023-05-07T03:31:43;4.00;;;3.00;;
74177;SDS011;62540;48.456;-4.456;2023-05-07T03:34:09;4.00;;;2.75;;
74177;SDS011;62540;48.456;-4.456;2023-05-07T03:36:34;0.75;;;0.75;;
74177;SDS011;62540;48.456;-4.456;2023-05-07T03:38:59;2.25;;;2.25;;
74177;SDS011;62540;48.456;-4.456;2023-05-07T03:41:25;2.00;;;1.75;;
74177;SDS011;62540;48.456;-4.456;2023-05-07T03:43:50;1.75;;;1.75;;
74177;SDS011;62540;48.456;-4.456;2023-05-07T03:46:16;2.75;;;2.75;;
74177;SDS011;62540;48.456;-4.456;2023-05-07T03:48:41;2.25;;;2.00;;
74177;SDS011;62540;48.456;-4.456;2023-05-07T03:51:07;2.50;;;2.00;;
74177;SDS011;62540;48.456;-4.456;2023-05-07T03:53:32;2.75;;;1.75;;
74177;SDS011;62540;48.456;-4.456;2023-05-07T03:55:58;3.25;;;2.25;;
74177;SDS011;62540;48.456;-4.456;2023-05-07T03:58:23;1.75;;;1.75;;
74177;SDS011;62540;48.456;-4.456;2023-05-07T04:00:48;3.25;;;2.50;;
74177;SDS011;62540;48.456;-4.456;2023-05-07T04:03:14;2.75;;;2.75;;
74177;SDS011;62540;48.456;-4.456;2023-05-07T04:05:40;4.75;;;3.00;;
74177;SDS011;62540;48.456;-4.456;2023-05-07T04:08:05;3.75;;;2.75;;
74177;SDS011;62540;48.456;-4.456;2023-05-07T04:10:31;6.25;;;4.00;;
74177;SDS011;62540;48.456;-4.456;2023-05-07T04:12:56;5.50;;;2.00;;
74177;SDS011;62540;48.456;-4.456;2023-05-07T04:15:22;4.25;;;2.75;;
74177;SDS011;62540;48.456;-4.456;2023-05-07T04:17:48;7.00;;;2.50;;
74177;SDS011;62540;48.456;-4.456;2023-05-07T04:20:14;3.00;;;3.00;;
74177;SDS011;62540;48.456;-4.456;2023-05-07T04:22:41;5.25;;;3.00;;
74177;SDS011;62540;48.456;-4.456;2023-05-07T04:25:07;3.75;;;2.75;;
74177;SDS011;62540;48.456;-4.456;2023-05-07T04:27:36;3.00;;;2.25;;
74177;SDS011;62540;48.456;-4.456;2023-05-07T04:30:02;2.00;;;2.00;;
74177;SDS011;62540;48.456;-4.456;2023-05-07T04:32:29;3.00;;;2.75;;
74177;SDS011;62540;48.456;-4.456;2023-05-07T04:34:58;1.00;;;0.75;;
74177;SDS011;62540;48.456;-4.456;2023-05-07T04:37:23;2.50;;;2.50;;
74177;SDS011;62540;48.456;-4.456;2023-05-07T04:39:50;3.25;;;2.75;;
74177;SDS011;62540;48.456;-4.456;2023-05-07T04:42:16;5.75;;;3.00;;
74177;SDS011;62540;48.456;-4.456;2023-05-07T04:44:42;2.00;;;2.00;;
74177;SDS011;62540;48.456;-4.456;2023-05-07T04:47:11;2.00;;;2.00;;
74177;SDS011;62540;48.456;-4.456;2023-05-07T04:49:37;2.50;;;2.25;;
74177;SDS011;62540;48.456;-4.456;2023-05-07T04:52:03;5.50;;;3.00;;
74177;SDS011;62540;48.456;-4.456;2023-05-07T04:54:29;3.00;;;2.75;;
74177;SDS011;62540;48.456;-4.456;2023-05-07T04:56:55;2.50;;;2.50;;
74177;SDS011;62540;48.456;-4.456;2023-05-07T04:59:20;4.50;;;4.00;;
74177;SDS011;62540;48.456;-4.456;2023-05-07T05:01:46;3.50;;;2.75;;
74177;SDS011;62540;48.456;-4.456;2023-05-07T05:04:11;3.75;;;3.00;;
74177;SDS011;62540;48.456;-4.456;2023-05-07T05:06:37;6.50;;;4.50;;
74177;SDS011;62540;48.456;-4.456;2023-05-07T05:09:03;3.00;;;2.75;;
74177;SDS011;62540;48.456;-4.456;2023-05-07T05:11:29;5.75;;;4.50;;
74177;SDS011;62540;48.456;-4.456;2023-05-07T05:13:55;3.75;;;3.50;;
74177;SDS011;62540;48.456;-4.456;2023-05-07T05:16:21;4.50;;;3.75;;
74177;SDS011;62540;48.456;-4.456;2023-05-07T05:18:46;3.75;;;2.75;;
74177;SDS011;62540;48.456;-4.456;2023-05-07T05:21:11;3.75;;;2.75;;
74177;SDS011;62540;48.456;-4.456;2023-05-07T05:23:37;4.00;;;4.00;;
74177;SDS011;62540;48.456;-4.456;2023-05-07T05:26:03;4.25;;;3.75;;
74177;SDS011;62540;48.456;-4.456;2023-05-07T05:28:28;6.75;;;3.75;;
74177;SDS011;62540;48.456;-4.456;2023-05-07T05:30:53;3.50;;;3.25;;
74177;SDS011;62540;48.456;-4.456;2023-05-07T05:33:19;4.00;;;3.75;;
74177;SDS011;62540;48.456;-4.456;2023-05-07T05:35:44;6.00;;;3.75;;
74177;SDS011;62540;48.456;-4.456;2023-05-07T05:38:10;3.25;;;3.25;;
74177;SDS011;62540;48.456;-4.456;2023-05-07T05:40:35;2.00;;;2.00;;
74177;SDS011;62540;48.456;-4.456;2023-05-07T05:43:00;3.00;;;3.00;;
74177;SDS011;62540;48.456;-4.456;2023-05-07T05:45:26;2.25;;;1.75;;
74177;SDS011;62540;48.456;-4.456;2023-05-07T05:47:51;0.75;;;0.75;;
74177;SDS011;62540;48.456;-4.456;2023-05-07T05:50:17;5.00;;;2.75;;
74177;SDS011;62540;48.456;-4.456;2023-05-07T05:52:42;5.75;;;4.75;;
74177;SDS011;62540;48.456;-4.456;2023-05-07T05:55:08;3.00;;;3.00;;
74177;SDS011;62540;48.456;-4.456;2023-05-07T05:57:33;2.75;;;2.50;;
74177;SDS011;62540;48.456;-4.456;2023-05-07T06:00:00;5.25;;;5.00;;
74177;SDS011;62540;48.456;-4.456;2023-05-07T06:02:25;3.50;;;3.50;;
74177;SDS011;62540;48.456;-4.456;2023-05-07T06:04:51;6.75;;;5.50;;
74177;SDS011;62540;48.456;-4.456;2023-05-07T06:07:16;6.00;;;4.50;;
74177;SDS011;62540;48.456;-4.456;2023-05-07T06:09:41;6.50;;;5.50;;
74177;SDS011;62540;48.456;-4.456;2023-05-07T06:12:07;3.25;;;3.25;;
74177;SDS011;62540;48.456;-4.456;2023-05-07T06:14:32;5.50;;;5.50;;
74177;SDS011;62540;48.456;-4.456;2023-05-07T06:16:58;6.00;;;3.75;;
74177;SDS011;62540;48.456;-4.456;2023-05-07T06:19:23;6.50;;;4.50;;
74177;SDS011;62540;48.456;-4.456;2023-05-07T06:21:49;5.00;;;4.00;;
74177;SDS011;62540;48.456;-4.456;2023-05-07T06:24:15;5.25;;;5.25;;
74177;SDS011;62540;48.456;-4.456;2023-05-07T06:26:40;7.00;;;2.50;;
74177;SDS011;62540;48.456;-4.456;2023-05-07T06:29:06;3.50;;;2.75;;
74177;SDS011;62540;48.456;-4.456;2023-05-07T06:31:31;4.50;;;3.25;;
74177;SDS011;62540;48.456;-4.456;2023-05-07T06:33:57;3.00;;;3.00;;
74177;SDS011;62540;48.456;-4.456;2023-05-07T06:36:22;3.00;;;2.25;;
74177;SDS011;62540;48.456;-4.456;2023-05-07T06:38:48;3.50;;;3.50;;
74177;SDS011;62540;48.456;-4.456;2023-05-07T06:41:13;5.75;;;4.25;;
74177;SDS011;62540;48.456;-4.456;2023-05-07T06:43:39;4.50;;;4.00;;
74177;SDS011;62540;48.456;-4.456;2023-05-07T06:46:04;5.50;;;4.00;;
74177;SDS011;62540;48.456;-4.456;2023-05-07T06:48:30;3.00;;;2.75;;
74177;SDS011;62540;48.456;-4.456;2023-05-07T06:50:55;3.00;;;2.25;;
74177;SDS011;62540;48.456;-4.456;2023-05-07T06:53:22;3.00;;;3.00;;
74177;SDS011;62540;48.456;-4.456;2023-05-07T06:55:48;3.75;;;3.00;;
74177;SDS011;62540;48.456;-4.456;2023-05-07T06:58:14;4.00;;;3.25;;
74177;SDS011;62540;48.456;-4.456;2023-05-07T07:00:39;1.75;;;1.75;;
74177;SDS011;62540;48.456;-4.456;2023-05-07T07:03:05;3.00;;;2.75;;
74177;SDS011;62540;48.456;-4.456;2023-05-07T07:05:31;0.00;;;0.00;;
74177;SDS011;62540;48.456;-4.456;2023-05-07T07:07:56;5.25;;;2.75;;
74177;SDS011;62540;48.456;-4.456;2023-05-07T07:10:22;4.50;;;4.00;;
74177;SDS011;62540;48.456;-4.456;2023-05-07T07:12:48;5.00;;;3.75;;
74177;SDS011;62540;48.456;-4.456;2023-05-07T07:15:14;3.00;;;2.75;;
74177;SDS011;62540;48.456;-4.456;2023-05-07T07:17:40;5.75;;;4.75;;
74177;SDS011;62540;48.456;-4.456;2023-05-07T07:20:05;5.50;;;4.00;;
74177;SDS011;62540;48.456;-4.456;2023-05-07T07:22:31;5.50;;;5.25;;
74177;SDS011;62540;48.456;-4.456;2023-05-07T07:24:57;6.75;;;6.00;;
74177;SDS011;62540;48.456;-4.456;2023-05-07T07:27:22;5.00;;;4.50;;
74177;SDS011;62540;48.456;-4.456;2023-05-07T07:29:48;7.00;;;5.25;;
74177;SDS011;62540;48.456;-4.456;2023-05-07T07:32:13;7.00;;;5.25;;
74177;SDS011;62540;48.456;-4.456;2023-05-07T07:34:38;5.50;;;4.25;;
74177;SDS011;62540;48.456;-4.456;2023-05-07T07:37:04;4.00;;;4.00;;
74177;SDS011;62540;48.456;-4.456;2023-05-07T07:39:30;6.50;;;4.00;;
74177;SDS011;62540;48.456;-4.456;2023-05-07T07:41:56;4.25;;;3.75;;
74177;SDS011;62540;48.456;-4.456;2023-05-07T07:44:21;7.00;;;7.00;;
74177;SDS011;62540;48.456;-4.456;2023-05-07T07:46:47;5.00;;;3.75;;
74177;SDS011;62540;48.456;-4.456;2023-05-07T07:49:12;6.75;;;6.50;;
74177;SDS011;62540;48.456;-4.456;2023-05-07T07:51:38;6.75;;;4.50;;
74177;SDS011;62540;48.456;-4.456;2023-05-07T07:54:03;4.75;;;3.50;;
74177;SDS011;62540;48.456;-4.456;2023-05-07T07:56:29;6.75;;;5.25;;
74177;SDS011;62540;48.456;-4.456;2023-05-07T07:58:54;5.00;;;3.50;;
74177;SDS011;62540;48.456;-4.456;2023-05-07T08:01:20;2.25;;;2.25;;
74177;SDS011;62540;48.456;-4.456;2023-05-07T08:03:45;6.50;;;4.00;;
74177;SDS011;62540;48.456;-4.456;2023-05-07T08:06:10;4.00;;;4.00;;
74177;SDS011;62540;48.456;-4.456;2023-05-07T08:08:36;4.00;;;4.00;;
74177;SDS011;62540;48.456;-4.456;2023-05-07T08:11:01;4.25;;;3.50;;
74177;SDS011;62540;48.456;-4.456;2023-05-07T08:13:26;4.75;;;3.75;;
74177;SDS011;62540;48.456;-4.456;2023-05-07T08:15:52;6.00;;;4.00;;
74177;SDS011;62540;48.456;-4.456;2023-05-07T08:18:17;4.50;;;4.00;;
74177;SDS011;62540;48.456;-4.456;2023-05-07T08:20:43;5.75;;;5.25;;
74177;SDS011;62540;48.456;-4.456;2023-05-07T08:23:08;3.00;;;3.00;;
74177;SDS011;62540;48.456;-4.456;2023-05-07T08:25:34;5.00;;;2.75;;
74177;SDS011;62540;48.456;-4.456;2023-05-07T08:28:00;4.50;;;3.00;;
74177;SDS011;62540;48.456;-4.456;2023-05-07T08:30:25;4.00;;;2.75;;
74177;SDS011;62540;48.456;-4.456;2023-05-07T08:32:51;2.75;;;2.00;;
74177;SDS011;62540;48.456;-4.456;2023-05-07T08:35:16;5.00;;;3.00;;
74177;SDS011;62540;48.456;-4.456;2023-05-07T08:37:41;4.00;;;3.25;;
74177;SDS011;62540;48.456;-4.456;2023-05-07T08:40:07;6.50;;;4.75;;
74177;SDS011;62540;48.456;-4.456;2023-05-07T08:42:35;4.00;;;3.00;;
74177;SDS011;62540;48.456;-4.456;2023-05-07T08:45:02;3.50;;;3.25;;
74177;SDS011;62540;48.456;-4.456;2023-05-07T08:47:34;2.25;;;1.00;;
74177;SDS011;62540;48.456;-4.456;2023-05-07T08:50:05;2.00;;;0.75;;
74177;SDS011;62540;48.456;-4.456;2023-05-07T08:52:31;2.00;;;2.00;;
74177;SDS011;62540;48.456;-4.456;2023-05-07T08:54:57;1.50;;;1.00;;
74177;SDS011;62540;48.456;-4.456;2023-05-07T08:57:23;2.25;;;2.00;;
74177;SDS011;62540;48.456;-4.456;2023-05-07T08:59:49;1.25;;;0.50;;
74177;SDS011;62540;48.456;-4.456;2023-05-07T09:02:15;3.00;;;1.75;;
74177;SDS011;62540;48.456;-4.456;2023-05-07T09:04:41;1.00;;;1.00;;
74177;SDS011;62540;48.456;-4.456;2023-05-07T09:07:07;4.00;;;2.00;;
74177;SDS011;62540;48.456;-4.456;2023-05-07T09:09:32;1.00;;;1.00;;
74177;SDS011;62540;48.456;-4.456;2023-05-07T09:11:59;0.00;;;0.00;;
74177;SDS011;62540;48.456;-4.456;2023-05-07T09:14:24;0.50;;;0.00;;
74177;SDS011;62540;48.456;-4.456;2023-05-07T09:16:51;1.50;;;1.00;;
74177;SDS011;62540;48.456;-4.456;2023-05-07T09:19:21;1.25;;;0.75;;
74177;SDS011;62540;48.456;-4.456;2023-05-07T09:21:48;1.50;;;1.25;;
74177;SDS011;62540;48.456;-4.456;2023-05-07T09:24:15;1.00;;;1.00;;
74177;SDS011;62540;48.456;-4.456;2023-05-07T09:26:41;2.25;;;1.00;;
74177;SDS011;62540;48.456;-4.456;2023-05-07T09:29:07;0.50;;;0.50;;
74177;SDS011;62540;48.456;-4.456;2023-05-07T09:31:36;0.00;;;0.00;;
74177;SDS011;62540;48.456;-4.456;2023-05-07T09:34:04;1.00;;;1.00;;
74177;SDS011;62540;48.456;-4.456;2023-05-07T09:36:31;2.00;;;1.25;;
74177;SDS011;62540;48.456;-4.456;2023-05-07T09:38:58;1.00;;;1.00;;
74177;SDS011;62540;48.456;-4.456;2023-05-07T09:41:25;1.00;;;1.00;;
74177;SDS011;62540;48.456;-4.456;2023-05-07T09:43:54;0.00;;;0.00;;
74177;SDS011;62540;48.456;-4.456;2023-05-07T09:46:20;2.00;;;2.00;;
74177;SDS011;62540;48.456;-4.456;2023-05-07T09:48:56;1.00;;;0.75;;
74177;SDS011;62540;48.456;-4.456;2023-05-07T09:51:30;3.00;;;1.50;;
74177;SDS011;62540;48.456;-4.456;2023-05-07T09:54:03;3.00;;;1.00;;
74177;SDS011;62540;48.456;-4.456;2023-05-07T09:56:29;0.00;;;0.00;;
74177;SDS011;62540;48.456;-4.456;2023-05-07T09:58:56;3.25;;;2.00;;
74177;SDS011;62540;48.456;-4.456;2023-05-07T10:01:25;2.00;;;1.25;;
74177;SDS011;62540;48.456;-4.456;2023-05-07T10:03:52;0.50;;;0.00;;
74177;SDS011;62540;48.456;-4.456;2023-05-07T10:06:19;1.25;;;1.25;;
74177;SDS011;62540;48.456;-4.456;2023-05-07T10:08:45;1.00;;;1.00;;
74177;SDS011;62540;48.456;-4.456;2023-05-07T10:11:11;1.50;;;1.00;;
74177;SDS011;62540;48.456;-4.456;2023-05-07T10:13:37;1.25;;;1.00;;
74177;SDS011;62540;48.456;-4.456;2023-05-07T10:16:06;1.75;;;1.00;;
74177;SDS011;62540;48.456;-4.456;2023-05-07T10:18:32;0.00;;;0.00;;
74177;SDS011;62540;48.456;-4.456;2023-05-07T10:21:02;0.00;;;0.00;;
74177;SDS011;62540;48.456;-4.456;2023-05-07T10:23:33;1.00;;;0.75;;
74177;SDS011;62540;48.456;-4.456;2023-05-07T10:25:59;0.00;;;0.00;;
74177;SDS011;62540;48.456;-4.456;2023-05-07T10:28:28;1.00;;;0.00;;
74177;SDS011;62540;48.456;-4.456;2023-05-07T10:33:41;2.50;;;0.25;;
74177;SDS011;62540;48.456;-4.456;2023-05-07T10:36:09;0.00;;;0.00;;
74177;SDS011;62540;48.456;-4.456;2023-05-07T10:38:34;0.00;;;0.00;;
74177;SDS011;62540;48.456;-4.456;2023-05-07T10:41:00;0.00;;;0.00;;
74177;SDS011;62540;48.456;-4.456;2023-05-07T10:43:36;1.00;;;0.00;;
74177;SDS011;62540;48.456;-4.456;2023-05-07T10:46:10;0.00;;;0.00;;
74177;SDS011;62540;48.456;-4.456;2023-05-07T10:51:27;0.00;;;0.00;;
74177;SDS011;62540;48.456;-4.456;2023-05-07T10:54:39;0.00;;;0.00;;
74177;SDS011;62540;48.456;-4.456;2023-05-07T10:56:41;0.25;;;0.00;;
74177;SDS011;62540;48.456;-4.456;2023-05-07T10:59:29;1.00;;;0.00;;
74177;SDS011;62540;48.456;-4.456;2023-05-07T11:01:59;0.50;;;0.00;;
74177;SDS011;62540;48.456;-4.456;2023-05-07T11:04:31;0.50;;;0.00;;
74177;SDS011;62540;48.456;-4.456;2023-05-07T11:15:06;0.00;;;0.00;;
74177;SDS011;62540;48.456;-4.456;2023-05-07T11:20:20;0.75;;;0.00;;
74177;SDS011;62540;48.456;-4.456;2023-05-07T11:23:08;0.00;;;0.00;;
74177;SDS011;62540;48.456;-4.456;2023-05-07T11:25:57;1.00;;;0.00;;
74177;SDS011;62540;48.456;-4.456;2023-05-07T11:28:39;1.00;;;0.00;;
74177;SDS011;62540;48.456;-4.456;2023-05-07T11:31:07;0.00;;;0.00;;
74177;SDS011;62540;48.456;-4.456;2023-05-07T11:33:33;0.00;;;0.00;;
74177;SDS011;62540;48.456;-4.456;2023-05-07T11:36:00;1.00;;;0.00;;
74177;SDS011;62540;48.456;-4.456;2023-05-07T11:38:29;0.00;;;0.00;;
74177;SDS011;62540;48.456;-4.456;2023-05-07T11:40:58;1.00;;;0.75;;
74177;SDS011;62540;48.456;-4.456;2023-05-07T11:43:29;0.00;;;0.00;;
74177;SDS011;62540;48.456;-4.456;2023-05-07T11:45:55;1.00;;;0.00;;
74177;SDS011;62540;48.456;-4.456;2023-05-07T11:48:30;0.00;;;0.00;;
74177;SDS011;62540;48.456;-4.456;2023-05-07T11:51:02;1.00;;;0.00;;
74177;SDS011;62540;48.456;-4.456;2023-05-07T11:53:36;0.00;;;0.00;;
74177;SDS011;62540;48.456;-4.456;2023-05-07T11:56:06;0.00;;;0.00;;
74177;SDS011;62540;48.456;-4.456;2023-05-07T11:58:39;0.00;;;0.00;;
74177;SDS011;62540;48.456;-4.456;2023-05-07T12:01:07;0.00;;;0.00;;
74177;SDS011;62540;48.456;-4.456;2023-05-07T12:03:34;0.50;;;0.00;;
74177;SDS011;62540;48.456;-4.456;2023-05-07T12:06:02;0.00;;;0.00;;
74177;SDS011;62540;48.456;-4.456;2023-05-07T12:08:27;1.00;;;0.00;;
74177;SDS011;62540;48.456;-4.456;2023-05-07T12:10:53;0.00;;;0.00;;
74177;SDS011;62540;48.456;-4.456;2023-05-07T12:13:20;0.75;;;0.00;;
74177;SDS011;62540;48.456;-4.456;2023-05-07T12:15:46;1.00;;;0.00;;
74177;SDS011;62540;48.456;-4.456;2023-05-07T12:18:15;1.00;;;0.00;;
74177;SDS011;62540;48.456;-4.456;2023-05-07T12:20:40;0.50;;;0.00;;
74177;SDS011;62540;48.456;-4.456;2023-05-07T12:23:06;0.00;;;0.00;;
74177;SDS011;62540;48.456;-4.456;2023-05-07T12:25:34;1.00;;;0.00;;
74177;SDS011;62540;48.456;-4.456;2023-05-07T12:28:00;0.00;;;0.00;;
74177;SDS011;62540;48.456;-4.456;2023-05-07T12:30:26;0.50;;;0.00;;
74177;SDS011;62540;48.456;-4.456;2023-05-07T12:32:53;0.00;;;0.00;;
74177;SDS011;62540;48.456;-4.456;2023-05-07T12:35:28;0.00;;;0.00;;
74177;SDS011;62540;48.456;-4.456;2023-05-07T12:38:00;0.00;;;0.00;;
74177;SDS011;62540;48.456;-4.456;2023-05-07T12:40:39;0.00;;;0.00;;
74177;SDS011;62540;48.456;-4.456;2023-05-07T12:43:18;2.50;;;1.00;;
74177;SDS011;62540;48.456;-4.456;2023-05-07T12:45:44;2.00;;;2.00;;
74177;SDS011;62540;48.456;-4.456;2023-05-07T12:48:12;2.75;;;2.75;;
74177;SDS011;62540;48.456;-4.456;2023-05-07T12:50:37;2.00;;;2.00;;
74177;SDS011;62540;48.456;-4.456;2023-05-07T12:53:03;2.50;;;2.00;;
74177;SDS011;62540;48.456;-4.456;2023-05-07T12:55:31;2.00;;;2.00;;
74177;SDS011;62540;48.456;-4.456;2023-05-07T12:57:57;2.00;;;2.00;;
74177;SDS011;62540;48.456;-4.456;2023-05-07T13:00:59;2.25;;;1.50;;
74177;SDS011;62540;48.456;-4.456;2023-05-07T13:03:21;2.00;;;2.00;;
74177;SDS011;62540;48.456;-4.456;2023-05-07T13:05:47;3.75;;;3.00;;
74177;SDS011;62540;48.456;-4.456;2023-05-07T13:08:22;4.00;;;2.00;;
74177;SDS011;62540;48.456;-4.456;2023-05-07T13:10:51;2.50;;;2.00;;
74177;SDS011;62540;48.456;-4.456;2023-05-07T13:13:16;3.75;;;3.00;;
74177;SDS011;62540;48.456;-4.456;2023-05-07T13:15:41;3.00;;;2.75;;
74177;SDS011;62540;48.456;-4.456;2023-05-07T13:18:07;4.00;;;2.75;;
74177;SDS011;62540;48.456;-4.456;2023-05-07T13:20:32;2.00;;;1.00;;
74177;SDS011;62540;48.456;-4.456;2023-05-07T13:22:57;2.75;;;2.00;;
74177;SDS011;62540;48.456;-4.456;2023-05-07T13:25:26;2.00;;;2.00;;
74177;SDS011;62540;48.456;-4.456;2023-05-07T13:27:51;3.00;;;2.50;;
74177;SDS011;62540;48.456;-4.456;2023-05-07T13:30:16;3.75;;;2.75;;
74177;SDS011;62540;48.456;-4.456;2023-05-07T13:32:42;2.00;;;2.00;;
74177;SDS011;62540;48.456;-4.456;2023-05-07T13:35:07;3.00;;;2.00;;
74177;SDS011;62540;48.456;-4.456;2023-05-07T13:37:32;2.00;;;2.00;;
74177;SDS011;62540;48.456;-4.456;2023-05-07T13:39:58;3.00;;;2.25;;
74177;SDS011;62540;48.456;-4.456;2023-05-07T13:42:26;3.00;;;2.00;;
74177;SDS011;62540;48.456;-4.456;2023-05-07T13:44:51;2.00;;;2.00;;
74177;SDS011;62540;48.456;-4.456;2023-05-07T13:47:16;2.25;;;2.00;;
74177;SDS011;62540;48.456;-4.456;2023-05-07T13:49:42;2.75;;;2.75;;
74177;SDS011;62540;48.456;-4.456;2023-05-07T13:52:07;2.25;;;2.25;;
74177;SDS011;62540;48.456;-4.456;2023-05-07T13:54:32;2.50;;;1.75;;
74177;SDS011;62540;48.456;-4.456;2023-05-07T13:56:58;3.25;;;3.00;;
74177;SDS011;62540;48.456;-4.456;2023-05-07T13:59:23;3.50;;;3.00;;
74177;SDS011;62540;48.456;-4.456;2023-05-07T14:01:48;4.00;;;3.25;;
74177;SDS011;62540;48.456;-4.456;2023-05-07T14:04:14;4.00;;;3.25;;
74177;SDS011;62540;48.456;-4.456;2023-05-07T14:06:39;3.00;;;3.00;;
74177;SDS011;62540;48.456;-4.456;2023-05-07T14:09:05;4.00;;;3.50;;
74177;SDS011;62540;48.456;-4.456;2023-05-07T14:11:30;6.00;;;3.50;;
74177;SDS011;62540;48.456;-4.456;2023-05-07T14:13:56;3.75;;;3.75;;
74177;SDS011;62540;48.456;-4.456;2023-05-07T14:16:23;3.00;;;2.50;;
74177;SDS011;62540;48.456;-4.456;2023-05-07T14:18:48;3.00;;;3.00;;
74177;SDS011;62540;48.456;-4.456;2023-05-07T14:21:14;3.00;;;3.00;;
74177;SDS011;62540;48.456;-4.456;2023-05-07T14:23:39;2.50;;;2.50;;
74177;SDS011;62540;48.456;-4.456;2023-05-07T14:26:05;2.00;;;2.00;;
74177;SDS011;62540;48.456;-4.456;2023-05-07T14:28:30;5.00;;;3.00;;
74177;SDS011;62540;48.456;-4.456;2023-05-07T14:30:56;0.00;;;0.00;;
74177;SDS011;62540;48.456;-4.456;2023-05-07T14:33:21;2.00;;;2.00;;
74177;SDS011;62540;48.456;-4.456;2023-05-07T14:35:47;4.50;;;3.00;;
74177;SDS011;62540;48.456;-4.456;2023-05-07T14:38:14;2.75;;;2.75;;
74177;SDS011;62540;48.456;-4.456;2023-05-07T14:40:40;3.00;;;3.00;;
74177;SDS011;62540;48.456;-4.456;2023-05-07T14:43:06;2.00;;;2.00;;
74177;SDS011;62540;48.456;-4.456;2023-05-07T14:45:31;2.00;;;2.00;;
74177;SDS011;62540;48.456;-4.456;2023-05-07T14:47:56;1.50;;;1.50;;